Time;durP1;ratioP1;P1;durP2;ratioP2;P2;SDS_P1;SDS_P2;PMS_P1;PMS_P2;Temp;Humidity;BMP_temperature;BMP_pressure;BME280_temperature;BME280_humidity;BME280_pressure;Samples;Min_cycle;Max_cycle;Signal;HPM_P1;HPM_P2
2022/12/31 00:01:42;;;;;;;8.63;3.20;;;;;;;13.70;73.15;100202.53;6110587;23;20012;-83
2022/12/31 00:04:07;;;;;;;7.43;3.33;;;;;;;13.70;73.41;100218.06;6110601;23;20009;-81
2022/12/31 00:06:34;;;;;;;8.05;2.85;;;;;;;13.70;73.37;100208.56;6159463;23;20035;-80
2022/12/31 00:09:04;;;;;;;8.27;3.28;;;;;;;13.71;73.44;100219.75;6185693;23;20080;-84
2022/12/31 00:11:30;;;;;;;7.82;2.80;;;;;;;13.72;73.69;100221.50;6185855;23;20456;-83
2022/12/31 00:13:57;;;;;;;6.93;2.67;;;;;;;13.71;73.16;100217.19;6159796;23;19997;-84
2022/12/31 00:16:25;;;;;;;10.02;3.05;;;;;;;13.70;73.94;100230.97;6184427;23;20009;-84
2022/12/31 00:18:53;;;;;;;11.35;3.13;;;;;;;13.69;73.50;100224.06;6184185;23;20035;-81
2022/12/31 00:21:19;;;;;;;7.65;3.05;;;;;;;13.69;73.74;100222.34;6159495;23;20005;-85
2022/12/31 00:23:45;;;;;;;11.93;3.25;;;;;;;13.70;73.96;100223.22;6135015;23;20005;-86
2022/12/31 00:26:14;;;;;;;8.48;3.10;;;;;;;13.70;74.15;100231.84;6135181;23;20016;-82
2022/12/31 00:28:40;;;;;;;7.97;3.03;;;;;;;13.70;73.76;100241.31;6184382;23;20005;-83
2022/12/31 00:31:09;;;;;;;6.13;2.75;;;;;;;13.70;73.41;100244.75;6187488;23;20008;-83
2022/12/31 00:33:35;;;;;;;7.65;2.90;;;;;;;13.70;74.12;100242.19;6161200;23;20005;-83
2022/12/31 00:36:31;;;;;;;8.90;2.90;;;;;;;13.70;73.86;100254.25;6187808;23;20028;-81
2022/12/31 00:38:59;;;;;;;9.25;2.58;;;;;;;13.71;73.98;100254.22;6180779;23;20013;-83
2022/12/31 00:41:26;;;;;;;7.53;2.83;;;;;;;13.71;74.23;100255.97;6131871;23;20005;-83
2022/12/31 00:43:52;;;;;;;5.43;2.83;;;;;;;13.72;74.18;100249.94;6131879;23;20093;-84
2022/12/31 00:46:18;;;;;;;9.98;2.88;;;;;;;13.70;74.15;100236.16;6107432;23;20061;-82
2022/12/31 00:48:44;;;;;;;7.43;2.45;;;;;;;13.69;74.31;100237.84;6131652;23;20013;-84
2022/12/31 00:51:12;;;;;;;5.75;2.60;;;;;;;13.70;74.04;100242.19;6131789;23;20006;-81
2022/12/31 00:53:38;;;;;;;7.13;2.20;;;;;;;13.71;73.86;100237.84;6157917;23;20073;-83
2022/12/31 00:56:06;;;;;;;6.35;2.70;;;;;;;13.70;73.96;100239.59;6131815;23;20100;-82
2022/12/31 00:58:35;;;;;;;8.43;3.08;;;;;;;13.70;73.95;100244.75;6131644;23;20330;-81
2022/12/31 01:01:21;;;;;;;7.93;2.70;;;;;;;13.70;74.52;100236.16;6131516;23;20381;-82
2022/12/31 01:03:50;;;;;;;6.28;2.15;;;;;;;13.70;73.75;100234.41;6157483;23;20481;-80
2022/12/31 01:06:16;;;;;;;7.82;2.72;;;;;;;13.70;74.25;100239.59;6131536;23;20338;-82
2022/12/31 01:08:42;;;;;;;6.35;2.17;;;;;;;13.71;74.04;100240.44;6131646;23;20036;-81
2022/12/31 01:11:18;;;;;;;5.63;2.08;;;;;;;13.70;74.40;100242.19;6107088;23;20009;-81
2022/12/31 01:14:14;;;;;;;5.07;2.15;;;;;;;13.70;73.94;100239.59;6132519;23;20467;-83
2022/12/31 01:16:44;;;;;;;4.03;2.08;;;;;;;13.70;73.93;100239.59;6157609;23;20001;-82
2022/12/31 01:19:14;;;;;;;7.90;2.50;;;;;;;13.70;74.49;100228.41;6155934;23;20067;-84
2022/12/31 01:21:41;;;;;;;4.22;2.17;;;;;;;13.70;74.44;100228.41;6131562;23;20449;-83
2022/12/31 01:24:08;;;;;;;6.45;2.30;;;;;;;13.70;74.45;100234.41;6106914;23;20012;-82
2022/12/31 01:26:35;;;;;;;6.40;2.30;;;;;;;13.71;74.71;100235.28;6131424;23;20006;-85
2022/12/31 01:29:00;;;;;;;6.78;2.22;;;;;;;13.71;74.22;100246.47;6106955;23;20426;-81
2022/12/31 01:31:26;;;;;;;5.80;2.33;;;;;;;13.71;74.03;100245.63;6107011;23;20012;-83
2022/12/31 01:33:52;;;;;;;4.60;1.73;;;;;;;13.71;74.06;100250.78;6155862;23;20013;-83
2022/12/31 01:36:23;;;;;;;5.25;1.98;;;;;;;13.71;74.25;100235.28;6107785;23;20044;-84
2022/12/31 01:38:49;;;;;;;6.85;2.42;;;;;;;13.70;74.06;100234.41;6157507;23;20033;-85
2022/12/31 01:41:19;;;;;;;4.82;2.22;;;;;;;13.70;74.14;100228.41;6131008;23;20013;-82
2022/12/31 01:43:55;;;;;;;5.18;2.15;;;;;;;13.71;74.18;100230.09;6131474;23;20037;-85
2022/12/31 01:46:45;;;;;;;3.90;1.73;;;;;;;13.71;74.10;100220.63;6131252;23;20013;-83
2022/12/31 01:49:17;;;;;;;5.07;1.88;;;;;;;13.72;74.24;100237.00;6157230;23;20006;-83
2022/12/31 01:51:46;;;;;;;4.88;1.65;;;;;;;13.72;74.18;100230.09;6157313;23;20002;-82
2022/12/31 01:54:14;;;;;;;5.45;2.03;;;;;;;13.73;74.06;100224.06;6131177;23;20319;-83
2022/12/31 01:56:43;;;;;;;5.90;1.90;;;;;;;13.73;73.55;100218.03;6107116;23;20002;-85
2022/12/31 01:59:11;;;;;;;4.30;2.00;;;;;;;13.75;73.87;100214.56;6131763;23;19998;-84
2022/12/31 02:01:37;;;;;;;6.03;2.05;;;;;;;13.76;73.46;100218.00;6131638;23;20006;-85
2022/12/31 02:04:07;;;;;;;3.67;1.85;;;;;;;13.77;73.57;100219.75;6131246;23;20016;-84
2022/12/31 02:06:40;;;;;;;4.30;1.95;;;;;;;13.77;73.67;100230.09;6131350;23;20006;-86
2022/12/31 02:09:06;;;;;;;5.15;2.20;;;;;;;13.77;73.01;100233.53;6131346;23;20450;-84
2022/12/31 02:11:35;;;;;;;5.00;1.85;;;;;;;13.78;73.05;100244.72;6157430;23;20452;-86
2022/12/31 02:14:12;;;;;;;5.38;1.50;;;;;;;13.79;73.04;100254.22;6131000;23;20005;-85
2022/12/31 02:16:38;;;;;;;5.60;1.77;;;;;;;13.80;73.07;100250.75;6155637;23;20008;-86
2022/12/31 02:19:52;;;;;;;4.43;1.60;;;;;;;13.79;72.83;100254.22;6155919;23;20381;-84
2022/12/31 02:22:46;;;;;;;3.95;1.35;;;;;;;13.80;72.81;100258.50;6130598;23;20052;-83
2022/12/31 02:25:20;;;;;;;3.33;1.40;;;;;;;13.82;72.52;100261.09;6131566;23;20012;-86
2022/12/31 02:27:49;;;;;;;4.32;1.67;;;;;;;13.83;73.29;100257.63;6155352;23;20006;-83
2022/12/31 02:30:20;;;;;;;4.40;1.50;;;;;;;13.83;72.87;100257.63;6155417;23;20039;-86
2022/12/31 02:33:04;;;;;;;3.42;1.30;;;;;;;13.83;72.98;100266.28;6156132;23;20028;-80
2022/12/31 02:35:32;;;;;;;;;;;;;;;13.83;72.71;100261.09;6155897;23;20001;-83
2022/12/31 02:38:03;;;;;;;4.10;1.73;;;;;;;13.84;73.09;100246.44;6155162;23;20281;-81
2022/12/31 02:40:32;;;;;;;4.18;1.48;;;;;;;13.83;72.76;100240.41;6151674;23;20032;-85
2022/12/31 02:42:57;;;;;;;3.47;1.42;;;;;;;13.85;72.13;100248.16;6136250;23;20503;-82
2022/12/31 02:45:31;;;;;;;3.80;1.55;;;;;;;13.85;73.23;100246.44;6111151;23;20005;-83
2022/12/31 02:48:03;;;;;;;;;;;;;;;13.86;72.69;100249.88;6160784;23;20009;-85
2022/12/31 02:50:37;;;;;;;3.33;1.25;;;;;;;13.87;72.48;100246.41;6185102;23;19910;-84
2022/12/31 02:53:10;;;;;;;3.92;1.40;;;;;;;13.86;72.69;100255.91;6159695;23;20000;-85
2022/12/31 02:55:42;;;;;;;3.88;1.50;;;;;;;13.86;72.60;100260.22;6184814;23;19997;-82
2022/12/31 03:02:12;;;;;;;4.95;1.27;;;;;;;13.86;73.13;100260.22;6184716;23;20059;-85
2022/12/31 03:04:30;;;;;;;4.30;1.42;;;;;;;13.86;73.23;100274.00;6163879;23;20064;-84
2022/12/31 03:06:39;;;;;;;6.82;1.73;;;;;;;13.86;73.05;100279.19;6186091;23;20009;-81
2022/12/31 03:09:13;;;;;;;2.53;1.35;;;;;;;13.85;73.41;100264.56;6111326;23;20020;-85
2022/12/31 03:14:23;;;;;;;3.28;1.38;;;;;;;13.85;73.77;100274.91;6143393;23;20012;-81
2022/12/31 03:16:49;;;;;;;3.90;1.50;;;;;;;13.85;73.15;100277.47;6135335;23;20334;-85
2022/12/31 03:27:27;;;;;;;;;;;;;;;13.85;73.30;100269.72;6186915;23;20067;-87
2022/12/31 03:29:53;;;;;;;3.92;1.40;;;;;;;13.86;73.64;100273.16;6135373;23;19908;-85
2022/12/31 03:32:18;;;;;;;3.88;1.30;;;;;;;13.85;73.57;100268.84;6111311;23;20063;-87
2022/12/31 03:34:43;;;;;;;3.78;1.30;;;;;;;13.85;73.73;100267.13;6159842;23;20377;-85
2022/12/31 03:37:09;;;;;;;4.05;1.60;;;;;;;13.85;73.45;100269.72;6110971;23;20012;-82
2022/12/31 03:39:34;;;;;;;3.53;1.42;;;;;;;13.85;73.17;100266.25;6135121;23;20021;-86
2022/12/31 03:42:00;;;;;;;3.20;1.27;;;;;;;13.86;73.61;100252.47;6111298;23;20393;-85
2022/12/31 03:44:25;;;;;;;3.88;1.48;;;;;;;13.85;73.63;100246.44;6110816;23;20072;-85
2022/12/31 03:46:50;;;;;;;4.07;1.42;;;;;;;13.88;73.56;100242.97;6110985;23;20315;-84
2022/12/31 03:49:16;;;;;;;3.58;1.30;;;;;;;13.88;73.19;100236.06;6135572;23;20016;-84
2022/12/31 03:51:41;;;;;;;4.20;1.55;;;;;;;13.88;72.91;100238.66;6135143;23;20009;-84
2022/12/31 03:54:09;;;;;;;2.92;1.20;;;;;;;13.90;73.19;100234.34;6159807;23;20067;-85
2022/12/31 03:56:35;;;;;;;3.13;1.13;;;;;;;13.92;72.75;100249.88;6159784;23;20008;-83
2022/12/31 03:59:00;;;;;;;2.40;1.20;;;;;;;13.92;72.80;100244.69;6135281;23;20055;-85
2022/12/31 04:01:25;;;;;;;3.40;1.02;;;;;;;13.91;72.74;100227.44;6159646;23;20345;-85
2022/12/31 04:03:51;;;;;;;2.90;1.30;;;;;;;13.92;72.80;100236.94;6160602;23;20087;-85
2022/12/31 04:06:16;;;;;;;3.03;1.30;;;;;;;13.93;73.07;100251.56;6113230;23;20058;-81
2022/12/31 04:08:41;;;;;;;3.03;1.02;;;;;;;13.93;72.56;100244.66;6112948;23;20430;-85
2022/12/31 04:11:09;;;;;;;4.55;1.38;;;;;;;13.94;72.67;100243.81;6137030;23;20012;-83
2022/12/31 04:13:35;;;;;;;2.53;1.05;;;;;;;13.94;73.05;100232.63;6137271;23;20031;-85
2022/12/31 04:16:00;;;;;;;2.70;1.33;;;;;;;13.96;72.82;100230.88;6112554;23;20422;-85
2022/12/31 04:18:25;;;;;;;3.92;1.38;;;;;;;13.97;72.82;100240.34;6186518;23;20001;-85
2022/12/31 04:20:51;;;;;;;3.67;1.10;;;;;;;13.96;72.31;100231.75;6137349;23;20063;-84
2022/12/31 04:23:16;;;;;;;2.92;1.30;;;;;;;13.95;72.63;100219.66;6136983;23;20009;-86
2022/12/31 04:25:42;;;;;;;2.78;1.20;;;;;;;13.96;72.47;100236.91;6137087;23;20009;-86
2022/12/31 04:28:07;;;;;;;4.03;1.30;;;;;;;13.97;72.28;100238.63;6137092;23;20040;-87
2022/12/31 04:30:33;;;;;;;2.90;1.25;;;;;;;13.97;72.18;100228.28;6136757;23;20027;-85
2022/12/31 04:32:58;;;;;;;3.92;1.10;;;;;;;13.99;72.90;100230.88;6112676;23;20016;-85
2022/12/31 04:35:23;;;;;;;3.28;1.17;;;;;;;13.99;72.75;100236.03;6112349;23;20001;-85
2022/12/31 04:37:49;;;;;;;1.60;0.70;;;;;;;13.99;72.11;100241.22;6161548;23;20036;-85
2022/12/31 04:40:14;;;;;;;2.03;0.85;;;;;;;13.99;72.39;100252.41;6112333;23;20017;-85
2022/12/31 04:42:39;;;;;;;1.35;0.77;;;;;;;13.99;72.17;100247.25;6137041;23;20365;-82
2022/12/31 04:45:05;;;;;;;1.88;0.98;;;;;;;14.01;72.21;100252.41;6112151;23;20051;-83
2022/12/31 04:47:31;;;;;;;5.03;1.20;;;;;;;14.02;72.32;100251.53;6137008;23;20017;-81
2022/12/31 04:49:56;;;;;;;3.53;0.90;;;;;;;14.00;72.11;100248.09;6136853;23;20096;-86
2022/12/31 04:52:22;;;;;;;2.00;0.90;;;;;;;14.02;72.14;100251.53;6137249;23;20495;-87
2022/12/31 04:54:47;;;;;;;2.67;1.00;;;;;;;14.02;72.43;100248.94;6137314;23;20381;-86
2022/12/31 04:57:12;;;;;;;2.03;1.00;;;;;;;14.03;72.55;100258.44;6186546;23;20036;-86
2022/12/31 04:59:38;;;;;;;2.20;0.90;;;;;;;14.03;72.46;100247.25;6112725;23;20088;-86
2022/12/31 05:02:03;;;;;;;2.50;0.95;;;;;;;14.04;72.05;100254.97;6136913;23;20031;-83
2022/12/31 05:04:28;;;;;;;3.45;1.00;;;;;;;14.05;72.20;100248.94;6161081;23;20013;-85
2022/12/31 05:06:54;;;;;;;2.08;0.90;;;;;;;14.05;72.28;100251.53;6161171;23;20456;-83
2022/12/31 05:09:20;;;;;;;2.38;1.15;;;;;;;14.05;72.35;100256.72;6112514;23;20456;-84
2022/12/31 05:11:45;;;;;;;2.10;0.90;;;;;;;14.05;72.02;100243.78;6161329;23;20132;-83
2022/12/31 05:14:11;;;;;;;3.28;0.93;;;;;;;14.06;72.60;100258.41;6136516;23;20429;-83
2022/12/31 05:16:36;;;;;;;2.65;1.00;;;;;;;14.06;71.99;100253.25;6111592;23;20032;-82
2022/12/31 05:19:05;;;;;;;1.98;0.70;;;;;;;14.06;72.33;100253.25;6112141;23;20437;-82
2022/12/31 05:21:30;;;;;;;2.38;0.90;;;;;;;14.07;71.94;100257.56;6137958;23;20015;-81
2022/12/31 05:23:55;;;;;;;2.30;0.88;;;;;;;14.08;72.18;100256.69;6161103;23;20091;-81
2022/12/31 05:26:21;;;;;;;2.53;0.88;;;;;;;14.08;72.14;100251.50;6112102;23;20039;-80
2022/12/31 05:28:46;;;;;;;1.95;0.93;;;;;;;14.09;71.80;100255.84;6136451;23;20009;-80
2022/12/31 05:31:12;;;;;;;2.08;0.82;;;;;;;14.10;72.12;100251.50;6136496;23;20338;-82
2022/12/31 05:33:37;;;;;;;2.15;0.90;;;;;;;14.10;72.01;100248.94;6136292;23;20430;-84
2022/12/31 05:36:03;;;;;;;4.28;0.65;;;;;;;14.10;71.88;100251.50;6136277;23;20311;-83
2022/12/31 05:38:28;;;;;;;1.95;0.70;;;;;;;14.11;71.64;100245.47;6161035;23;20009;-84
2022/12/31 05:41:06;;;;;;;1.55;0.77;;;;;;;14.12;72.23;100258.41;6111884;23;20028;-83
2022/12/31 05:43:31;;;;;;;1.70;0.60;;;;;;;14.12;72.08;100250.63;6185582;23;20001;-81
2022/12/31 05:46:01;;;;;;;1.75;0.70;;;;;;;14.12;71.79;100250.63;6161405;23;20083;-81
2022/12/31 05:48:27;;;;;;;1.42;0.75;;;;;;;14.13;72.22;100238.56;6161205;23;20039;-86
2022/12/31 05:50:52;;;;;;;2.65;0.70;;;;;;;14.14;72.10;100245.47;6136235;23;20009;-84
2022/12/31 05:53:21;;;;;;;1.17;0.55;;;;;;;14.14;71.84;100243.72;6136419;23;20495;-83
2022/12/31 05:55:47;;;;;;;2.13;0.85;;;;;;;14.14;72.01;100246.31;6136813;23;20012;-81
2022/12/31 05:58:13;;;;;;;1.50;0.57;;;;;;;14.14;71.84;100241.13;6161188;23;20013;-82
2022/12/31 06:00:39;;;;;;;2.08;1.25;;;;;;;14.16;72.24;100244.59;6136294;23;20067;-83
2022/12/31 06:03:04;;;;;;;2.60;0.70;;;;;;;14.15;72.03;100242.88;6136277;23;20009;-81
2022/12/31 06:05:30;;;;;;;1.15;0.57;;;;;;;14.16;71.72;100243.72;6111859;23;20088;-86
2022/12/31 06:07:55;;;;;;;1.15;0.60;;;;;;;14.17;71.92;100242.84;6111961;23;20449;-86
2022/12/31 06:10:20;;;;;;;1.45;0.60;;;;;;;14.17;71.81;100235.94;6111993;23;20009;-86
2022/12/31 06:12:46;;;;;;;1.80;0.80;;;;;;;14.18;71.78;100244.59;6112001;23;20008;-86
2022/12/31 06:15:11;;;;;;;1.17;0.60;;;;;;;14.18;72.00;100245.44;6136413;23;20005;-86
2022/12/31 06:17:36;;;;;;;1.85;0.80;;;;;;;14.18;71.88;100258.38;6161165;23;20483;-87
2022/12/31 06:20:02;;;;;;;1.02;0.60;;;;;;;14.19;71.83;100252.31;6161190;23;20009;-86
2022/12/31 06:22:27;;;;;;;1.40;0.70;;;;;;;14.20;71.61;100255.78;6136689;23;20031;-88
2022/12/31 06:24:53;;;;;;;1.27;0.70;;;;;;;14.20;71.64;100253.19;6136692;23;20103;-88
2022/12/31 06:27:18;;;;;;;1.00;0.50;;;;;;;14.20;71.94;100255.78;6137196;23;20015;-87
2022/12/31 06:29:44;;;;;;;1.45;0.70;;;;;;;14.22;71.90;100258.34;6112012;23;20009;-87
2022/12/31 06:32:10;;;;;;;1.80;0.70;;;;;;;14.22;71.59;100264.41;6112441;23;20342;-87
2022/12/31 06:34:35;;;;;;;2.60;0.75;;;;;;;14.23;71.56;100254.91;6136392;23;20155;-87
2022/12/31 06:37:01;;;;;;;1.52;0.60;;;;;;;14.23;71.58;100253.16;6161013;23;20009;-86
2022/12/31 06:39:26;;;;;;;1.20;0.60;;;;;;;14.25;72.11;100253.19;6112033;23;20025;-88
2022/12/31 06:41:52;;;;;;;1.98;0.60;;;;;;;14.25;71.81;100240.22;6187081;23;20008;-87
2022/12/31 06:44:18;;;;;;;0.80;0.52;;;;;;;14.25;71.67;100258.34;6113741;23;20009;-87
2022/12/31 06:46:43;;;;;;;1.15;0.50;;;;;;;14.25;71.50;100242.81;6136414;23;20005;-84
2022/12/31 06:49:08;;;;;;;1.00;0.43;;;;;;;14.27;71.25;100254.88;6160749;23;20012;-85
2022/12/31 06:51:34;;;;;;;0.45;0.35;;;;;;;14.28;71.81;100250.56;6136556;23;20033;-81
2022/12/31 06:53:59;;;;;;;1.13;0.50;;;;;;;14.27;71.67;100244.53;6111524;23;19997;-85
2022/12/31 06:56:28;;;;;;;1.08;0.50;;;;;;;14.28;71.64;100237.63;6111303;23;20016;-82
2022/12/31 06:58:54;;;;;;;1.42;0.55;;;;;;;14.29;71.57;100242.78;6161125;23;20001;-90
2022/12/31 07:01:19;;;;;;;1.52;0.50;;;;;;;14.30;71.81;100241.91;6137872;23;20009;-91
2022/12/31 07:04:07;;;;;;;1.80;0.55;;;;;;;14.31;71.61;100242.78;6186265;23;20056;-85
2022/12/31 07:06:35;;;;;;;0.70;0.40;;;;;;;14.32;71.59;100263.47;6146212;23;20004;-88
2022/12/31 07:09:44;;;;;;;1.48;0.63;;;;;;;14.34;71.26;100256.56;6186321;23;20040;-90
2022/12/31 07:12:18;;;;;;;1.08;0.55;;;;;;;14.35;71.27;100247.94;6070234;23;20036;-92
2022/12/31 07:14:56;;;;;;;1.42;0.60;;;;;;;14.37;71.21;100243.63;6186300;23;20003;-92
2022/12/31 07:17:46;;;;;;;1.00;0.50;;;;;;;14.37;71.44;100235.84;6186662;23;20079;-91
2022/12/31 07:20:16;;;;;;;0.80;0.40;;;;;;;14.38;71.64;100245.31;6186285;23;20005;-86
2022/12/31 07:22:43;;;;;;;1.88;0.70;;;;;;;14.38;71.21;100234.13;6187095;23;20001;-89
2022/12/31 07:25:13;;;;;;;0.93;0.57;;;;;;;14.41;71.58;100249.63;6111882;23;20013;-86
2022/12/31 07:27:54;;;;;;;0.93;0.50;;;;;;;14.42;71.44;100251.34;6135728;23;20009;-84
2022/12/31 07:30:24;;;;;;;2.33;0.75;;;;;;;14.47;70.56;100240.97;6186666;23;20444;-85
2022/12/31 07:33:10;;;;;;;7.70;0.90;;;;;;;14.71;68.71;100248.59;6185002;23;20009;-85
2022/12/31 07:35:53;;;;;;;5.68;0.60;;;;;;;14.79;68.48;100246.81;6186485;23;20008;-84
2022/12/31 07:38:36;;;;;;;4.68;0.40;;;;;;;14.80;68.21;100248.53;6159754;23;20382;-83
2022/12/31 07:41:11;;;;;;;;;;;;;;;14.83;68.09;100260.63;6185015;23;20021;-81
2022/12/31 07:43:47;;;;;;;;;;;;;;;14.82;68.01;100241.59;6184989;23;19935;-80
2022/12/31 07:46:55;;;;;;;5.88;0.68;;;;;;;14.82;68.27;100251.97;6185964;23;19908;-82
2022/12/31 07:49:22;;;;;;;1.98;0.70;;;;;;;14.83;67.74;100242.50;6037680;23;20003;-80
2022/12/31 07:51:48;;;;;;;2.63;0.55;;;;;;;14.81;68.17;100250.25;6118260;23;20353;-81
2022/12/31 07:54:14;;;;;;;3.13;0.90;;;;;;;14.84;67.85;100235.56;6135341;23;20088;-82
2022/12/31 07:56:40;;;;;;;1.40;0.60;;;;;;;14.86;67.85;100244.19;6186429;23;20001;-84
2022/12/31 07:59:39;;;;;;;2.90;0.77;;;;;;;14.88;67.87;100252.81;6135126;23;20009;-84
2022/12/31 08:02:23;;;;;;;1.20;0.60;;;;;;;14.88;67.69;100253.66;6185174;23;20012;-85
2022/12/31 08:05:07;;;;;;;4.72;0.50;;;;;;;14.90;67.69;100267.47;6159561;23;20016;-85
2022/12/31 08:07:46;;;;;;;;;;;;;;;14.90;67.72;100257.09;6160075;23;20458;-84
2022/12/31 08:10:40;;;;;;;1.30;0.50;;;;;;;14.90;67.65;100257.09;6184459;23;19910;-83
2022/12/31 08:13:09;;;;;;;1.77;0.50;;;;;;;14.90;67.75;100279.56;6184338;23;19997;-85
2022/12/31 08:15:37;;;;;;;1.02;0.40;;;;;;;14.90;68.27;100272.66;6159440;23;20001;-84
2022/12/31 08:18:03;;;;;;;4.30;0.57;;;;;;;14.92;67.55;100291.63;6159543;23;20001;-84
2022/12/31 08:20:31;;;;;;;1.90;0.70;;;;;;;14.93;67.74;100275.22;6159985;23;20044;-81
2022/12/31 08:23:31;;;;;;;0.77;0.30;;;;;;;14.94;67.56;100273.50;6159597;23;20001;-79
2022/12/31 08:26:20;;;;;;;1.38;0.55;;;;;;;14.96;67.65;100272.63;6185754;23;20104;-83
2022/12/31 08:29:05;;;;;;;1.88;0.70;;;;;;;14.96;67.41;100267.44;6184398;23;20024;-80
2022/12/31 08:31:46;;;;;;;1.33;0.50;;;;;;;14.97;67.54;100282.09;6158575;23;20013;-83
2022/12/31 08:35:00;;;;;;;2.67;0.57;;;;;;;14.98;67.63;100289.00;6160031;23;20002;-86
2022/12/31 08:37:52;;;;;;;0.93;0.57;;;;;;;14.98;67.58;100299.38;6075458;23;20075;-88
2022/12/31 08:40:25;;;;;;;1.60;0.57;;;;;;;15.02;67.84;100298.47;6184992;23;20017;-86
2022/12/31 08:43:41;;;;;;;2.27;0.70;;;;;;;15.02;67.69;100303.66;6186548;23;20029;-83
2022/12/31 08:46:18;;;;;;;2.22;0.50;;;;;;;15.03;67.48;100288.97;6096489;23;20009;-88
2022/12/31 08:48:44;;;;;;;2.75;0.50;;;;;;;15.05;67.44;100302.78;6186370;23;20028;-82
2022/12/31 08:51:24;;;;;;;2.65;0.60;;;;;;;15.04;67.86;100302.78;6111481;23;20426;-81
2022/12/31 08:53:51;;;;;;;2.90;0.80;;;;;;;15.05;67.81;100307.97;6161044;23;20001;-82
2022/12/31 08:56:31;;;;;;;2.25;0.77;;;;;;;15.06;67.71;100306.22;6186040;23;19997;-81
2022/12/31 08:59:05;;;;;;;1.60;0.60;;;;;;;15.07;67.36;100318.28;6161164;23;20092;-79
2022/12/31 09:01:47;;;;;;;3.25;0.75;;;;;;;15.08;67.88;100322.63;6187663;23;20001;-84
2022/12/31 09:04:34;;;;;;;1.45;0.60;;;;;;;15.06;67.80;100335.56;6161010;23;20005;-79
2022/12/31 09:07:02;;;;;;;1.83;0.63;;;;;;;15.09;67.44;100352.81;6161097;23;20040;-79
2022/12/31 09:09:49;;;;;;;3.42;0.70;;;;;;;15.09;67.64;100348.53;6161194;23;20438;-80
2022/12/31 09:12:31;;;;;;;2.17;0.70;;;;;;;15.14;67.78;100356.28;6185845;23;20141;-78
2022/12/31 09:15:11;;;;;;;2.50;0.50;;;;;;;15.15;67.63;100355.38;6161119;23;20005;-89
2022/12/31 09:17:43;;;;;;;1.42;0.50;;;;;;;15.15;67.20;100364.00;6162185;23;20005;-86
2022/12/31 09:20:27;;;;;;;1.83;0.60;;;;;;;15.13;67.42;100370.09;6188493;23;20001;-89
2022/12/31 09:22:54;;;;;;;1.27;0.50;;;;;;;15.14;67.43;100362.31;6186898;23;19997;-91
2022/12/31 09:25:22;;;;;;;2.50;0.85;;;;;;;15.21;67.72;100366.56;6161816;23;20012;-86
2022/12/31 09:28:25;;;;;;;2.53;0.70;;;;;;;15.27;67.34;100393.34;6186599;23;20008;-90
2022/12/31 09:31:12;;;;;;;1.70;0.73;;;;;;;15.29;67.42;100382.09;6188384;23;20001;-90
2022/12/31 09:33:53;;;;;;;3.25;0.80;;;;;;;15.35;66.93;100392.41;6161866;23;20083;-86
2022/12/31 09:36:35;;;;;;;3.75;0.70;;;;;;;15.38;67.42;100373.38;6161839;23;20005;-84
2022/12/31 09:39:28;;;;;;;7.70;0.95;;;;;;;15.48;66.91;100382.78;6191797;23;20004;-90
2022/12/31 09:41:59;;;;;;;5.53;1.00;;;;;;;15.52;66.47;100383.63;6150001;23;20010;-93
2022/12/31 09:44:37;;;;;;;3.03;0.98;;;;;;;15.48;66.94;100384.50;6161088;23;20009;-92
2022/12/31 09:47:17;;;;;;;5.35;1.00;;;;;;;15.48;67.37;100381.94;6132901;23;20054;-89
2022/12/31 09:50:21;;;;;;;9.63;0.80;;;;;;;15.52;67.04;100383.63;6157143;23;20009;-90
2022/12/31 09:52:52;;;;;;;4.75;1.10;;;;;;;15.53;67.06;100404.38;6157905;23;20326;-91
2022/12/31 09:55:33;;;;;;;8.82;0.82;;;;;;;15.53;67.13;100400.91;6158110;23;20001;-90
2022/12/31 09:58:23;;;;;;;6.85;0.95;;;;;;;15.51;67.14;100393.16;6157820;23;20057;-92
2022/12/31 10:01:28;;;;;;;4.13;0.80;;;;;;;15.55;67.32;100387.06;6157844;23;20012;-90
2022/12/31 10:03:59;;;;;;;4.70;1.20;;;;;;;15.54;67.78;100433.75;6157365;23;20009;-90
2022/12/31 10:06:32;;;;;;;4.25;1.00;;;;;;;15.58;67.53;100427.66;6157411;23;20005;-90
2022/12/31 10:09:16;;;;;;;4.30;1.08;;;;;;;15.61;67.57;100441.47;6133326;23;20013;-91
2022/12/31 10:12:14;;;;;;;9.93;1.10;;;;;;;15.60;67.44;100438.91;6157818;23;20005;-88
2022/12/31 10:14:43;;;;;;;3.17;0.90;;;;;;;15.62;67.56;100432.81;6133400;23;20005;-90
2022/12/31 10:17:34;;;;;;;4.50;1.05;;;;;;;15.61;67.66;100433.72;6157169;23;20045;-90
2022/12/31 10:20:18;;;;;;;2.45;0.90;;;;;;;15.63;67.48;100439.75;6157457;23;20012;-90
2022/12/31 10:23:17;;;;;;;2.65;0.82;;;;;;;15.61;67.43;100432.81;6156816;23;20006;-89
2022/12/31 10:26:08;;;;;;;3.03;1.02;;;;;;;15.58;67.86;100425.94;6132088;23;20072;-88
2022/12/31 10:28:48;;;;;;;2.65;0.75;;;;;;;15.63;67.23;100428.47;6156810;23;20012;-90
2022/12/31 10:31:31;;;;;;;4.22;1.00;;;;;;;15.62;67.15;100431.97;6132415;23;20009;-92
2022/12/31 10:34:32;;;;;;;5.78;1.08;;;;;;;15.67;67.33;100444.91;6157269;23;20015;-92
2022/12/31 10:37:13;;;;;;;1.88;0.90;;;;;;;15.67;67.31;100432.78;6157897;23;19998;-87
2022/12/31 10:43:15;;;;;;;3.83;1.02;;;;;;;15.69;66.89;100431.03;6168574;23;20079;-89
2022/12/31 10:46:00;;;;;;;2.75;1.10;;;;;;;15.68;67.33;100442.28;6185998;23;19997;-89
2022/12/31 10:48:35;;;;;;;3.28;1.20;;;;;;;15.70;67.27;100437.06;6186313;23;20014;-89
2022/12/31 10:51:36;;;;;;;5.95;1.08;;;;;;;15.73;66.89;100430.16;6187906;23;20104;-89
2022/12/31 10:54:42;;;;;;;5.95;1.00;;;;;;;15.73;66.94;100443.16;6063582;23;20034;-92
2022/12/31 10:57:32;;;;;;;7.35;1.05;;;;;;;15.74;67.13;100444.88;6044283;23;20098;-90
2022/12/31 11:00:10;;;;;;;4.22;0.85;;;;;;;15.74;67.79;100456.97;6068389;23;20014;-93
2022/12/31 11:02:38;;;;;;;11.65;1.27;;;;;;;15.77;67.44;100455.22;6128535;23;20092;-93
2022/12/31 11:05:22;;;;;;;5.63;0.80;;;;;;;15.79;67.27;100466.44;6187367;23;20009;-93
2022/12/31 11:08:22;;;;;;;10.05;1.13;;;;;;;15.81;67.63;100466.44;6187309;23;20099;-92
2022/12/31 11:11:02;;;;;;;5.82;1.17;;;;;;;15.81;67.40;100469.03;6187111;23;20087;-93
2022/12/31 11:13:58;;;;;;;4.97;1.10;;;;;;;15.82;67.52;100457.78;6186278;23;20013;-93
2022/12/31 11:16:37;;;;;;;4.53;1.20;;;;;;;15.83;67.53;100462.97;6187090;23;20005;-92
2022/12/31 11:19:16;;;;;;;3.85;1.00;;;;;;;15.86;67.65;100462.06;6186855;23;19997;-93
2022/12/31 11:21:44;;;;;;;5.57;0.93;;;;;;;15.86;67.64;100456.03;6186760;23;20011;-93
2022/12/31 11:25:03;;;;;;;4.93;1.05;;;;;;;15.88;67.54;100462.06;6187186;23;20001;-91
2022/12/31 11:27:35;;;;;;;4.70;1.10;;;;;;;15.87;67.56;100450.81;6117424;23;20044;-93
2022/12/31 11:30:22;;;;;;;2.90;0.98;;;;;;;15.86;67.55;100451.69;6186480;23;20005;-92
2022/12/31 11:33:09;;;;;;;4.38;1.00;;;;;;;15.88;67.42;100433.53;6186544;23;20005;-92
2022/12/31 11:35:39;;;;;;;5.32;1.00;;;;;;;15.87;67.22;100429.19;6161238;23;20012;-94
2022/12/31 11:38:27;;;;;;;2.70;0.93;;;;;;;15.87;67.27;100448.22;6186657;23;20028;-90
2022/12/31 11:41:15;;;;;;;4.35;1.00;;;;;;;15.88;67.11;100443.91;6138610;23;20025;-92
2022/12/31 11:43:52;;;;;;;2.05;0.90;;;;;;;15.86;67.18;100454.28;6132776;23;20054;-92
2022/12/31 11:46:43;;;;;;;5.30;1.10;;;;;;;15.87;67.05;100443.03;6133370;23;20040;-89
2022/12/31 11:49:27;;;;;;;3.95;1.15;;;;;;;15.88;67.11;100454.28;6132908;23;20393;-92
2022/12/31 11:52:10;;;;;;;2.03;0.90;;;;;;;15.87;67.26;100437.81;6157550;23;20009;-93
2022/12/31 11:55:01;;;;;;;2.58;1.25;;;;;;;15.88;67.01;100438.72;6156796;23;20006;-92
2022/12/31 11:57:34;;;;;;;8.75;1.27;;;;;;;15.86;67.21;100441.31;6156746;23;20010;-93
2022/12/31 12:00:06;;;;;;;5.50;1.08;;;;;;;15.85;67.21;100439.56;6156830;23;20006;-92
2022/12/31 12:02:35;;;;;;;2.92;1.13;;;;;;;15.88;67.20;100438.72;6132441;23;20009;-92
2022/12/31 12:05:05;;;;;;;4.63;1.15;;;;;;;15.89;66.98;100449.06;6132255;23;20026;-91
2022/12/31 12:07:31;;;;;;;5.05;1.02;;;;;;;15.90;67.30;100436.97;6132344;23;20009;-91
2022/12/31 12:10:00;;;;;;;3.08;0.75;;;;;;;15.90;67.17;100444.75;6108140;23;20043;-94
2022/12/31 12:12:38;;;;;;;2.65;0.88;;;;;;;15.90;67.20;100442.16;6133038;23;20691;-92
2022/12/31 12:15:07;;;;;;;3.58;0.90;;;;;;;15.92;66.94;100438.66;6130898;23;20002;-85